Portada
METAR-TAF:

METAR-TAF

Aeroports :

Bamako, Mali

latitud: 12-32N, longitud: 007-57W, altitud: 380 m

Observació

L'informe es va fer fa 42 minuts, a les 10:00 UTC
Vent 11 kt del Est/Nord-Est, variant entre Nord/Nord-Est i Est
Temperatura 29°C
Humitat 12%
Pressió 1016 hPa
Visibilitat 10 km o més
sense núvols per sota de 1500 mi sense presència de cumulonimbus.

METAR: GABS 271000Z 06011KT 030V100 CAVOK 29/M03 Q1016 NOSIG

Hora: 10:42 (10:42 UTC)

Pronòstic

L'informe es va fer fa 5 hores i 32 minuts, a les 05:10 UTC
Pronòstic vàlid del 27 a les 06 UTC al 28 a les 12 UTC
Vent 10 kt del Nord-Est
Visibilitat: 8000 m

TAF: GABS 270510Z 2706/2812 05010KT 8000 NSC

Observacions i pronòstics meteorològics de més de 4000 aeroports (METAR i TAF).

Les estacions disponibles són els punts grocs i vermells al mapa.

Posi el ratolí al punt desitjat per veure el nom de l'estació.

Feu clic per veure les observacions i els pronòstics meteorològics.

Per canviar el mapa: feu clic els botons verds amb una creu de color negre per apropar; al botó verd amb un guió per allunyar la imatge; o en les fletxes verdes per a mapes adjacents.


METAR-TAF: